sensor_id;sensor_type;location;lat;lon;timestamp;temperature;humidity
3562;DHT22;1795;52.074;4.754;2023-03-14T00:02:32;10.80;99.90
3562;DHT22;1795;52.074;4.754;2023-03-14T00:05:00;10.80;99.90
3562;DHT22;1795;52.074;4.754;2023-03-14T00:07:29;10.70;99.90
3562;DHT22;1795;52.074;4.754;2023-03-14T00:10:01;10.80;99.90
3562;DHT22;1795;52.074;4.754;2023-03-14T00:12:32;10.70;99.90
3562;DHT22;1795;52.074;4.754;2023-03-14T00:15:00;10.70;99.90
3562;DHT22;1795;52.074;4.754;2023-03-14T00:17:30;10.70;99.90
3562;DHT22;1795;52.074;4.754;2023-03-14T00:19:58;10.70;99.90
3562;DHT22;1795;52.074;4.754;2023-03-14T00:22:31;10.70;99.90
3562;DHT22;1795;52.074;4.754;2023-03-14T00:24:59;10.70;99.90
3562;DHT22;1795;52.074;4.754;2023-03-14T00:27:27;10.70;99.90
3562;DHT22;1795;52.074;4.754;2023-03-14T00:29:56;10.70;99.90
3562;DHT22;1795;52.074;4.754;2023-03-14T00:32:24;10.70;99.90
3562;DHT22;1795;52.074;4.754;2023-03-14T00:34:52;10.70;99.90
3562;DHT22;1795;52.074;4.754;2023-03-14T00:37:20;10.70;99.90
3562;DHT22;1795;52.074;4.754;2023-03-14T00:39:50;10.70;99.90
3562;DHT22;1795;52.074;4.754;2023-03-14T00:42:18;10.70;99.90
3562;DHT22;1795;52.074;4.754;2023-03-14T00:44:46;10.70;99.90
3562;DHT22;1795;52.074;4.754;2023-03-14T00:47:16;10.70;99.90
3562;DHT22;1795;52.074;4.754;2023-03-14T00:49:44;10.70;99.90
3562;DHT22;1795;52.074;4.754;2023-03-14T00:52:12;10.70;99.90
3562;DHT22;1795;52.074;4.754;2023-03-14T00:54:40;10.70;99.90
3562;DHT22;1795;52.074;4.754;2023-03-14T00:57:08;10.60;99.90
3562;DHT22;1795;52.074;4.754;2023-03-14T00:59:36;10.60;99.90
3562;DHT22;1795;52.074;4.754;2023-03-14T01:02:04;10.60;99.90
3562;DHT22;1795;52.074;4.754;2023-03-14T01:04:33;10.60;99.90
3562;DHT22;1795;52.074;4.754;2023-03-14T01:07:01;10.60;99.90
3562;DHT22;1795;52.074;4.754;2023-03-14T01:09:29;10.60;99.90
3562;DHT22;1795;52.074;4.754;2023-03-14T01:11:57;10.50;99.90
3562;DHT22;1795;52.074;4.754;2023-03-14T01:14:25;10.50;99.90
3562;DHT22;1795;52.074;4.754;2023-03-14T01:16:54;10.50;99.90
3562;DHT22;1795;52.074;4.754;2023-03-14T01:19:27;10.50;99.90
3562;DHT22;1795;52.074;4.754;2023-03-14T01:21:57;10.50;99.90
3562;DHT22;1795;52.074;4.754;2023-03-14T01:24:25;10.50;99.90
3562;DHT22;1795;52.074;4.754;2023-03-14T01:26:52;10.50;99.90
3562;DHT22;1795;52.074;4.754;2023-03-14T01:29:20;10.50;99.90
3562;DHT22;1795;52.074;4.754;2023-03-14T01:31:48;10.40;99.90
3562;DHT22;1795;52.074;4.754;2023-03-14T01:34:16;10.40;99.90
3562;DHT22;1795;52.074;4.754;2023-03-14T01:36:44;10.40;99.90
3562;DHT22;1795;52.074;4.754;2023-03-14T01:39:14;10.40;99.90
3562;DHT22;1795;52.074;4.754;2023-03-14T01:41:42;10.40;99.90
3562;DHT22;1795;52.074;4.754;2023-03-14T01:44:10;10.40;99.90
3562;DHT22;1795;52.074;4.754;2023-03-14T01:46:40;10.40;99.90
3562;DHT22;1795;52.074;4.754;2023-03-14T01:49:17;10.40;99.90
3562;DHT22;1795;52.074;4.754;2023-03-14T01:51:51;10.40;99.90
3562;DHT22;1795;52.074;4.754;2023-03-14T01:54:25;10.40;99.90
3562;DHT22;1795;52.074;4.754;2023-03-14T01:56:57;10.40;99.90
3562;DHT22;1795;52.074;4.754;2023-03-14T01:59:26;10.40;99.90
3562;DHT22;1795;52.074;4.754;2023-03-14T02:01:56;10.40;99.90
3562;DHT22;1795;52.074;4.754;2023-03-14T02:04:28;10.40;99.90
3562;DHT22;1795;52.074;4.754;2023-03-14T02:09:30;10.40;99.90
3562;DHT22;1795;52.074;4.754;2023-03-14T02:11:59;10.40;99.90
3562;DHT22;1795;52.074;4.754;2023-03-14T02:14:30;10.30;99.90
3562;DHT22;1795;52.074;4.754;2023-03-14T02:17:00;10.40;99.90
3562;DHT22;1795;52.074;4.754;2023-03-14T02:19:39;10.30;99.90
3562;DHT22;1795;52.074;4.754;2023-03-14T02:22:12;10.30;99.90
3562;DHT22;1795;52.074;4.754;2023-03-14T02:24:48;10.30;99.90
3562;DHT22;1795;52.074;4.754;2023-03-14T02:27:20;10.30;99.90
3562;DHT22;1795;52.074;4.754;2023-03-14T02:29:51;10.30;99.90
3562;DHT22;1795;52.074;4.754;2023-03-14T02:32:21;10.30;99.90
3562;DHT22;1795;52.074;4.754;2023-03-14T02:34:53;10.30;99.90
3562;DHT22;1795;52.074;4.754;2023-03-14T02:37:26;10.30;99.90
3562;DHT22;1795;52.074;4.754;2023-03-14T02:39:55;10.30;99.90
3562;DHT22;1795;52.074;4.754;2023-03-14T02:42:25;10.30;99.90
3562;DHT22;1795;52.074;4.754;2023-03-14T02:45:01;10.20;99.90
3562;DHT22;1795;52.074;4.754;2023-03-14T02:47:44;10.20;99.90
3562;DHT22;1795;52.074;4.754;2023-03-14T02:50:17;10.30;99.90
3562;DHT22;1795;52.074;4.754;2023-03-14T02:52:46;10.30;99.90
3562;DHT22;1795;52.074;4.754;2023-03-14T02:55:14;10.30;99.90
3562;DHT22;1795;52.074;4.754;2023-03-14T02:57:44;10.30;99.90
3562;DHT22;1795;52.074;4.754;2023-03-14T03:00:12;10.30;99.90
3562;DHT22;1795;52.074;4.754;2023-03-14T03:02:41;10.20;99.90
3562;DHT22;1795;52.074;4.754;2023-03-14T03:05:09;10.20;99.90
3562;DHT22;1795;52.074;4.754;2023-03-14T03:07:37;10.20;99.90
3562;DHT22;1795;52.074;4.754;2023-03-14T03:10:06;10.20;99.90
3562;DHT22;1795;52.074;4.754;2023-03-14T03:12:34;10.10;99.90
3562;DHT22;1795;52.074;4.754;2023-03-14T03:15:04;10.10;99.90
3562;DHT22;1795;52.074;4.754;2023-03-14T03:17:32;10.10;99.90
3562;DHT22;1795;52.074;4.754;2023-03-14T03:20:00;10.10;99.90
3562;DHT22;1795;52.074;4.754;2023-03-14T03:22:31;10.10;99.90
3562;DHT22;1795;52.074;4.754;2023-03-14T03:24:59;10.10;99.90
3562;DHT22;1795;52.074;4.754;2023-03-14T03:27:29;10.10;99.90
3562;DHT22;1795;52.074;4.754;2023-03-14T03:29:57;10.10;99.90
3562;DHT22;1795;52.074;4.754;2023-03-14T03:32:26;10.00;99.90
3562;DHT22;1795;52.074;4.754;2023-03-14T03:34:54;10.00;99.90
3562;DHT22;1795;52.074;4.754;2023-03-14T03:37:22;10.00;99.90
3562;DHT22;1795;52.074;4.754;2023-03-14T03:39:51;10.00;99.90
3562;DHT22;1795;52.074;4.754;2023-03-14T03:42:19;10.00;99.90
3562;DHT22;1795;52.074;4.754;2023-03-14T03:44:47;10.00;99.90
3562;DHT22;1795;52.074;4.754;2023-03-14T03:47:16;10.00;99.90
3562;DHT22;1795;52.074;4.754;2023-03-14T03:49:45;10.00;99.90
3562;DHT22;1795;52.074;4.754;2023-03-14T03:52:13;10.00;99.90
3562;DHT22;1795;52.074;4.754;2023-03-14T03:54:41;10.00;99.90
3562;DHT22;1795;52.074;4.754;2023-03-14T03:57:09;10.00;99.90
3562;DHT22;1795;52.074;4.754;2023-03-14T03:59:37;10.00;99.90
3562;DHT22;1795;52.074;4.754;2023-03-14T04:02:07;10.00;99.90
3562;DHT22;1795;52.074;4.754;2023-03-14T04:04:35;10.00;99.90
3562;DHT22;1795;52.074;4.754;2023-03-14T04:07:05;9.90;99.90
3562;DHT22;1795;52.074;4.754;2023-03-14T04:09:33;10.00;99.90
3562;DHT22;1795;52.074;4.754;2023-03-14T04:12:01;10.00;99.90
3562;DHT22;1795;52.074;4.754;2023-03-14T04:14:30;10.00;99.90
3562;DHT22;1795;52.074;4.754;2023-03-14T04:16:58;10.00;99.90
3562;DHT22;1795;52.074;4.754;2023-03-14T04:19:26;10.00;99.90
3562;DHT22;1795;52.074;4.754;2023-03-14T04:21:54;10.00;99.90
3562;DHT22;1795;52.074;4.754;2023-03-14T04:24:23;9.90;99.90
3562;DHT22;1795;52.074;4.754;2023-03-14T04:26:51;10.00;99.90
3562;DHT22;1795;52.074;4.754;2023-03-14T04:29:19;10.00;99.90
3562;DHT22;1795;52.074;4.754;2023-03-14T04:31:47;10.00;99.90
3562;DHT22;1795;52.074;4.754;2023-03-14T04:34:15;10.00;99.90
3562;DHT22;1795;52.074;4.754;2023-03-14T04:36:43;9.90;99.90
3562;DHT22;1795;52.074;4.754;2023-03-14T04:39:11;9.90;99.90
3562;DHT22;1795;52.074;4.754;2023-03-14T04:41:41;9.90;99.90
3562;DHT22;1795;52.074;4.754;2023-03-14T04:44:09;9.90;99.90
3562;DHT22;1795;52.074;4.754;2023-03-14T04:46:37;9.90;99.90
3562;DHT22;1795;52.074;4.754;2023-03-14T04:49:05;9.90;99.90
3562;DHT22;1795;52.074;4.754;2023-03-14T04:51:33;9.90;99.90
3562;DHT22;1795;52.074;4.754;2023-03-14T04:54:01;9.90;99.90
3562;DHT22;1795;52.074;4.754;2023-03-14T04:56:29;9.80;99.90
3562;DHT22;1795;52.074;4.754;2023-03-14T04:58:58;9.80;99.90
3562;DHT22;1795;52.074;4.754;2023-03-14T05:01:26;9.80;99.90
3562;DHT22;1795;52.074;4.754;2023-03-14T05:03:54;9.80;99.90
3562;DHT22;1795;52.074;4.754;2023-03-14T05:06:22;9.80;99.90
3562;DHT22;1795;52.074;4.754;2023-03-14T05:08:50;9.80;99.90
3562;DHT22;1795;52.074;4.754;2023-03-14T05:11:18;9.80;99.90
3562;DHT22;1795;52.074;4.754;2023-03-14T05:13:46;9.90;99.90
3562;DHT22;1795;52.074;4.754;2023-03-14T05:16:16;9.80;99.90
3562;DHT22;1795;52.074;4.754;2023-03-14T05:18:44;9.80;99.90
3562;DHT22;1795;52.074;4.754;2023-03-14T05:21:12;9.80;99.90
3562;DHT22;1795;52.074;4.754;2023-03-14T05:23:40;9.70;99.90
3562;DHT22;1795;52.074;4.754;2023-03-14T05:26:08;9.70;99.90
3562;DHT22;1795;52.074;4.754;2023-03-14T05:28:36;9.70;99.90
3562;DHT22;1795;52.074;4.754;2023-03-14T05:31:06;9.70;99.90
3562;DHT22;1795;52.074;4.754;2023-03-14T05:33:36;9.60;99.90
3562;DHT22;1795;52.074;4.754;2023-03-14T05:36:05;9.70;99.90
3562;DHT22;1795;52.074;4.754;2023-03-14T05:38:33;9.70;99.90
3562;DHT22;1795;52.074;4.754;2023-03-14T05:41:01;9.60;99.90
3562;DHT22;1795;52.074;4.754;2023-03-14T05:43:29;9.60;99.90
3562;DHT22;1795;52.074;4.754;2023-03-14T05:45:57;9.60;99.90
3562;DHT22;1795;52.074;4.754;2023-03-14T05:48:25;9.60;99.90
3562;DHT22;1795;52.074;4.754;2023-03-14T05:50:58;9.60;99.90
3562;DHT22;1795;52.074;4.754;2023-03-14T05:53:27;9.60;99.90
3562;DHT22;1795;52.074;4.754;2023-03-14T05:55:56;9.50;99.90
3562;DHT22;1795;52.074;4.754;2023-03-14T05:58:24;9.50;99.90
3562;DHT22;1795;52.074;4.754;2023-03-14T06:00:52;9.50;99.90
3562;DHT22;1795;52.074;4.754;2023-03-14T06:03:20;9.40;99.90
3562;DHT22;1795;52.074;4.754;2023-03-14T06:05:49;9.40;99.90
3562;DHT22;1795;52.074;4.754;2023-03-14T06:08:19;9.40;99.90
3562;DHT22;1795;52.074;4.754;2023-03-14T06:10:47;9.30;99.90
3562;DHT22;1795;52.074;4.754;2023-03-14T06:13:15;9.30;99.90
3562;DHT22;1795;52.074;4.754;2023-03-14T06:15:43;9.20;99.90
3562;DHT22;1795;52.074;4.754;2023-03-14T06:18:12;9.20;99.90
3562;DHT22;1795;52.074;4.754;2023-03-14T06:20:40;9.20;99.90
3562;DHT22;1795;52.074;4.754;2023-03-14T06:23:08;9.20;99.90
3562;DHT22;1795;52.074;4.754;2023-03-14T06:25:38;9.20;99.90
3562;DHT22;1795;52.074;4.754;2023-03-14T06:28:06;9.10;99.90
3562;DHT22;1795;52.074;4.754;2023-03-14T06:30:34;9.10;99.90
3562;DHT22;1795;52.074;4.754;2023-03-14T06:33:02;9.10;99.90
3562;DHT22;1795;52.074;4.754;2023-03-14T06:35:30;9.10;99.90
3562;DHT22;1795;52.074;4.754;2023-03-14T06:37:58;9.00;99.90
3562;DHT22;1795;52.074;4.754;2023-03-14T06:40:26;9.00;99.90
3562;DHT22;1795;52.074;4.754;2023-03-14T06:42:56;9.00;99.90
3562;DHT22;1795;52.074;4.754;2023-03-14T06:45:24;8.90;99.90
3562;DHT22;1795;52.074;4.754;2023-03-14T06:47:52;8.90;99.90
3562;DHT22;1795;52.074;4.754;2023-03-14T06:50:20;8.90;99.90
3562;DHT22;1795;52.074;4.754;2023-03-14T06:52:48;8.90;99.90
3562;DHT22;1795;52.074;4.754;2023-03-14T06:55:17;8.80;99.90
3562;DHT22;1795;52.074;4.754;2023-03-14T06:57:48;8.80;99.90
3562;DHT22;1795;52.074;4.754;2023-03-14T07:00:18;8.80;99.90
3562;DHT22;1795;52.074;4.754;2023-03-14T07:02:46;8.80;99.90
3562;DHT22;1795;52.074;4.754;2023-03-14T07:05:14;8.80;99.90
3562;DHT22;1795;52.074;4.754;2023-03-14T07:07:42;8.70;99.90
3562;DHT22;1795;52.074;4.754;2023-03-14T07:10:10;8.70;99.90
3562;DHT22;1795;52.074;4.754;2023-03-14T07:12:38;8.70;99.90
3562;DHT22;1795;52.074;4.754;2023-03-14T07:15:07;8.70;99.90
3562;DHT22;1795;52.074;4.754;2023-03-14T07:17:57;8.70;99.90
3562;DHT22;1795;52.074;4.754;2023-03-14T07:20:25;8.60;99.90
3562;DHT22;1795;52.074;4.754;2023-03-14T07:22:53;8.60;99.90
3562;DHT22;1795;52.074;4.754;2023-03-14T07:25:21;8.60;99.90
3562;DHT22;1795;52.074;4.754;2023-03-14T07:27:49;8.60;99.90
3562;DHT22;1795;52.074;4.754;2023-03-14T07:30:18;8.60;99.90
3562;DHT22;1795;52.074;4.754;2023-03-14T07:32:46;8.60;99.90
3562;DHT22;1795;52.074;4.754;2023-03-14T07:35:15;8.50;99.90
3562;DHT22;1795;52.074;4.754;2023-03-14T07:37:43;8.50;99.90
3562;DHT22;1795;52.074;4.754;2023-03-14T07:40:12;8.40;99.90
3562;DHT22;1795;52.074;4.754;2023-03-14T07:42:41;8.40;99.90
3562;DHT22;1795;52.074;4.754;2023-03-14T07:45:10;8.40;99.90
3562;DHT22;1795;52.074;4.754;2023-03-14T07:47:38;8.40;99.90
3562;DHT22;1795;52.074;4.754;2023-03-14T07:50:07;8.40;99.90
3562;DHT22;1795;52.074;4.754;2023-03-14T07:52:37;8.30;99.90
3562;DHT22;1795;52.074;4.754;2023-03-14T07:55:05;8.30;99.90
3562;DHT22;1795;52.074;4.754;2023-03-14T07:57:33;8.20;99.90
3562;DHT22;1795;52.074;4.754;2023-03-14T08:00:02;8.20;99.90
3562;DHT22;1795;52.074;4.754;2023-03-14T08:02:32;8.20;99.90
3562;DHT22;1795;52.074;4.754;2023-03-14T08:05:00;8.20;99.90
3562;DHT22;1795;52.074;4.754;2023-03-14T08:07:28;8.10;99.90
3562;DHT22;1795;52.074;4.754;2023-03-14T08:09:57;8.10;99.90
3562;DHT22;1795;52.074;4.754;2023-03-14T08:12:25;8.10;99.90
3562;DHT22;1795;52.074;4.754;2023-03-14T08:14:53;8.10;99.90
3562;DHT22;1795;52.074;4.754;2023-03-14T08:17:21;8.10;99.90
3562;DHT22;1795;52.074;4.754;2023-03-14T08:19:49;8.00;99.90
3562;DHT22;1795;52.074;4.754;2023-03-14T08:22:17;8.00;99.90
3562;DHT22;1795;52.074;4.754;2023-03-14T08:24:46;7.90;99.90
3562;DHT22;1795;52.074;4.754;2023-03-14T08:27:15;7.90;99.90
3562;DHT22;1795;52.074;4.754;2023-03-14T08:29:43;7.90;99.90
3562;DHT22;1795;52.074;4.754;2023-03-14T08:32:11;7.90;99.90
3562;DHT22;1795;52.074;4.754;2023-03-14T08:34:39;7.90;99.90
3562;DHT22;1795;52.074;4.754;2023-03-14T08:37:07;7.90;99.90
3562;DHT22;1795;52.074;4.754;2023-03-14T08:39:51;7.90;99.90
3562;DHT22;1795;52.074;4.754;2023-03-14T08:42:21;7.90;99.90
3562;DHT22;1795;52.074;4.754;2023-03-14T08:44:50;7.90;99.90
3562;DHT22;1795;52.074;4.754;2023-03-14T08:47:18;7.90;99.90
3562;DHT22;1795;52.074;4.754;2023-03-14T08:49:46;7.90;99.90
3562;DHT22;1795;52.074;4.754;2023-03-14T08:52:14;7.80;99.90
3562;DHT22;1795;52.074;4.754;2023-03-14T08:54:43;7.80;99.90
3562;DHT22;1795;52.074;4.754;2023-03-14T08:57:11;7.90;99.90
3562;DHT22;1795;52.074;4.754;2023-03-14T08:59:41;7.80;99.90
3562;DHT22;1795;52.074;4.754;2023-03-14T09:02:11;7.90;99.90
3562;DHT22;1795;52.074;4.754;2023-03-14T09:04:39;7.90;99.90
3562;DHT22;1795;52.074;4.754;2023-03-14T09:07:07;7.90;99.90
3562;DHT22;1795;52.074;4.754;2023-03-14T09:09:35;7.80;99.90
3562;DHT22;1795;52.074;4.754;2023-03-14T09:12:04;7.80;99.90
3562;DHT22;1795;52.074;4.754;2023-03-14T09:14:32;7.80;99.90
3562;DHT22;1795;52.074;4.754;2023-03-14T09:17:02;7.90;99.90
3562;DHT22;1795;52.074;4.754;2023-03-14T09:19:30;7.90;99.90
3562;DHT22;1795;52.074;4.754;2023-03-14T09:21:58;7.90;99.90
3562;DHT22;1795;52.074;4.754;2023-03-14T09:24:26;7.90;99.90
3562;DHT22;1795;52.074;4.754;2023-03-14T09:26:54;7.90;99.90
3562;DHT22;1795;52.074;4.754;2023-03-14T09:29:23;7.90;99.90
3562;DHT22;1795;52.074;4.754;2023-03-14T09:31:51;7.90;99.90
3562;DHT22;1795;52.074;4.754;2023-03-14T09:34:21;7.90;99.90
3562;DHT22;1795;52.074;4.754;2023-03-14T09:36:49;7.90;99.90
3562;DHT22;1795;52.074;4.754;2023-03-14T09:39:17;7.90;99.90
3562;DHT22;1795;52.074;4.754;2023-03-14T09:41:47;7.90;99.90
3562;DHT22;1795;52.074;4.754;2023-03-14T09:44:21;7.90;99.90
3562;DHT22;1795;52.074;4.754;2023-03-14T09:46:52;7.90;99.90
3562;DHT22;1795;52.074;4.754;2023-03-14T09:49:26;7.80;99.90
3562;DHT22;1795;52.074;4.754;2023-03-14T09:51:57;7.80;99.90
3562;DHT22;1795;52.074;4.754;2023-03-14T09:54:35;7.80;99.90
3562;DHT22;1795;52.074;4.754;2023-03-14T09:57:06;7.80;99.90
3562;DHT22;1795;52.074;4.754;2023-03-14T09:59:35;7.70;99.90
3562;DHT22;1795;52.074;4.754;2023-03-14T10:02:14;7.80;99.90
3562;DHT22;1795;52.074;4.754;2023-03-14T10:04:46;7.70;99.90
3562;DHT22;1795;52.074;4.754;2023-03-14T10:07:16;7.70;99.90
3562;DHT22;1795;52.074;4.754;2023-03-14T10:09:48;7.70;99.90
3562;DHT22;1795;52.074;4.754;2023-03-14T10:12:17;7.70;99.90
3562;DHT22;1795;52.074;4.754;2023-03-14T10:14:48;7.70;99.90
3562;DHT22;1795;52.074;4.754;2023-03-14T10:17:18;7.80;99.90
3562;DHT22;1795;52.074;4.754;2023-03-14T10:19:56;7.80;99.90
3562;DHT22;1795;52.074;4.754;2023-03-14T10:22:29;7.80;99.90
3562;DHT22;1795;52.074;4.754;2023-03-14T10:25:01;7.80;99.90
3562;DHT22;1795;52.074;4.754;2023-03-14T10:27:31;7.80;99.90
3562;DHT22;1795;52.074;4.754;2023-03-14T10:30:01;7.80;99.90
3562;DHT22;1795;52.074;4.754;2023-03-14T10:32:33;7.80;99.90
3562;DHT22;1795;52.074;4.754;2023-03-14T10:35:14;7.70;99.90
3562;DHT22;1795;52.074;4.754;2023-03-14T10:37:53;7.70;99.90
3562;DHT22;1795;52.074;4.754;2023-03-14T10:40:27;7.70;99.90
3562;DHT22;1795;52.074;4.754;2023-03-14T10:42:57;7.70;99.90
3562;DHT22;1795;52.074;4.754;2023-03-14T10:45:31;7.70;99.90
3562;DHT22;1795;52.074;4.754;2023-03-14T10:48:06;7.70;99.90
3562;DHT22;1795;52.074;4.754;2023-03-14T10:50:50;7.80;99.90
3562;DHT22;1795;52.074;4.754;2023-03-14T10:53:20;7.80;99.90
3562;DHT22;1795;52.074;4.754;2023-03-14T10:55:48;7.80;99.90
3562;DHT22;1795;52.074;4.754;2023-03-14T10:58:19;7.80;99.90
3562;DHT22;1795;52.074;4.754;2023-03-14T11:00:52;7.80;99.90
3562;DHT22;1795;52.074;4.754;2023-03-14T11:03:21;7.90;99.90
3562;DHT22;1795;52.074;4.754;2023-03-14T11:05:56;7.90;99.90
3562;DHT22;1795;52.074;4.754;2023-03-14T11:08:29;7.90;99.90
3562;DHT22;1795;52.074;4.754;2023-03-14T11:11:10;7.90;99.90
3562;DHT22;1795;52.074;4.754;2023-03-14T11:13:52;7.90;99.90
3562;DHT22;1795;52.074;4.754;2023-03-14T11:16:26;7.90;99.90
3562;DHT22;1795;52.074;4.754;2023-03-14T11:19:20;7.90;99.90
3562;DHT22;1795;52.074;4.754;2023-03-14T11:21:55;7.90;99.90
3562;DHT22;1795;52.074;4.754;2023-03-14T11:24:45;8.00;99.90
3562;DHT22;1795;52.074;4.754;2023-03-14T11:27:18;8.00;99.90
3562;DHT22;1795;52.074;4.754;2023-03-14T11:29:54;8.10;99.90
3562;DHT22;1795;52.074;4.754;2023-03-14T11:32:35;8.10;99.90
3562;DHT22;1795;52.074;4.754;2023-03-14T11:35:13;8.20;99.90
3562;DHT22;1795;52.074;4.754;2023-03-14T11:37:46;8.20;99.90
3562;DHT22;1795;52.074;4.754;2023-03-14T11:40:18;8.30;99.90
3562;DHT22;1795;52.074;4.754;2023-03-14T11:42:49;8.30;99.90
3562;DHT22;1795;52.074;4.754;2023-03-14T11:45:25;8.40;99.90
3562;DHT22;1795;52.074;4.754;2023-03-14T11:48:06;8.40;99.90
3562;DHT22;1795;52.074;4.754;2023-03-14T11:50:38;8.50;99.90
3562;DHT22;1795;52.074;4.754;2023-03-14T11:53:14;8.50;99.90
3562;DHT22;1795;52.074;4.754;2023-03-14T11:55:45;8.60;99.90
3562;DHT22;1795;52.074;4.754;2023-03-14T11:58:16;8.60;99.90
3562;DHT22;1795;52.074;4.754;2023-03-14T12:00:47;8.70;99.90
3562;DHT22;1795;52.074;4.754;2023-03-14T12:03:22;8.80;99.90
3562;DHT22;1795;52.074;4.754;2023-03-14T12:06:02;8.80;99.90
3562;DHT22;1795;52.074;4.754;2023-03-14T12:08:46;8.80;99.90
3562;DHT22;1795;52.074;4.754;2023-03-14T12:11:19;8.80;99.90
3562;DHT22;1795;52.074;4.754;2023-03-14T12:13:50;8.90;99.90
3562;DHT22;1795;52.074;4.754;2023-03-14T12:16:35;8.90;99.90
3562;DHT22;1795;52.074;4.754;2023-03-14T12:19:21;8.90;99.90
3562;DHT22;1795;52.074;4.754;2023-03-14T12:21:55;8.90;99.90
3562;DHT22;1795;52.074;4.754;2023-03-14T12:24:29;9.00;99.90
3562;DHT22;1795;52.074;4.754;2023-03-14T12:27:00;9.00;99.90
3562;DHT22;1795;52.074;4.754;2023-03-14T12:29:29;9.00;99.90
3562;DHT22;1795;52.074;4.754;2023-03-14T12:32:09;9.10;99.90
3562;DHT22;1795;52.074;4.754;2023-03-14T12:34:39;9.10;99.90
3562;DHT22;1795;52.074;4.754;2023-03-14T12:37:24;9.10;99.90
3562;DHT22;1795;52.074;4.754;2023-03-14T12:40:11;9.10;99.90
3562;DHT22;1795;52.074;4.754;2023-03-14T12:42:50;9.20;99.90
3562;DHT22;1795;52.074;4.754;2023-03-14T12:45:26;9.20;99.90
3562;DHT22;1795;52.074;4.754;2023-03-14T12:48:05;9.20;99.90
3562;DHT22;1795;52.074;4.754;2023-03-14T12:50:43;9.30;99.90
3562;DHT22;1795;52.074;4.754;2023-03-14T12:56:25;9.30;99.90
3562;DHT22;1795;52.074;4.754;2023-03-14T12:59:10;9.30;99.90
3562;DHT22;1795;52.074;4.754;2023-03-14T13:01:47;9.30;99.90
3562;DHT22;1795;52.074;4.754;2023-03-14T13:04:16;9.30;99.90
3562;DHT22;1795;52.074;4.754;2023-03-14T13:06:56;9.30;99.90
3562;DHT22;1795;52.074;4.754;2023-03-14T13:09:50;9.30;99.90
3562;DHT22;1795;52.074;4.754;2023-03-14T13:12:23;9.30;99.90
3562;DHT22;1795;52.074;4.754;2023-03-14T13:14:59;9.30;99.90
3562;DHT22;1795;52.074;4.754;2023-03-14T13:17:33;9.30;99.90
3562;DHT22;1795;52.074;4.754;2023-03-14T13:20:11;9.30;99.90
3562;DHT22;1795;52.074;4.754;2023-03-14T13:22:46;9.30;99.90
3562;DHT22;1795;52.074;4.754;2023-03-14T13:25:14;9.30;99.90
3562;DHT22;1795;52.074;4.754;2023-03-14T13:27:45;9.30;99.90
3562;DHT22;1795;52.074;4.754;2023-03-14T13:30:19;9.40;99.90
3562;DHT22;1795;52.074;4.754;2023-03-14T13:32:49;9.40;99.90
3562;DHT22;1795;52.074;4.754;2023-03-14T13:35:20;9.40;99.90
3562;DHT22;1795;52.074;4.754;2023-03-14T13:37:53;9.40;99.90
3562;DHT22;1795;52.074;4.754;2023-03-14T13:40:36;9.50;99.90
3562;DHT22;1795;52.074;4.754;2023-03-14T13:43:13;9.50;99.90
3562;DHT22;1795;52.074;4.754;2023-03-14T13:45:44;9.50;99.90
3562;DHT22;1795;52.074;4.754;2023-03-14T13:48:13;9.50;99.90
3562;DHT22;1795;52.074;4.754;2023-03-14T13:50:50;9.50;99.90
3562;DHT22;1795;52.074;4.754;2023-03-14T13:53:18;9.50;99.90
3562;DHT22;1795;52.074;4.754;2023-03-14T13:55:47;9.60;99.90
3562;DHT22;1795;52.074;4.754;2023-03-14T13:58:25;9.50;99.90
3562;DHT22;1795;52.074;4.754;2023-03-14T14:01:03;9.50;99.90
3562;DHT22;1795;52.074;4.754;2023-03-14T14:03:32;9.50;99.90
3562;DHT22;1795;52.074;4.754;2023-03-14T14:06:01;9.50;99.90
3562;DHT22;1795;52.074;4.754;2023-03-14T14:08:30;9.50;99.90
3562;DHT22;1795;52.074;4.754;2023-03-14T14:11:00;9.50;99.90
3562;DHT22;1795;52.074;4.754;2023-03-14T14:13:33;9.50;99.90
3562;DHT22;1795;52.074;4.754;2023-03-14T14:16:03;9.50;99.90
3562;DHT22;1795;52.074;4.754;2023-03-14T14:18:33;9.40;99.90
3562;DHT22;1795;52.074;4.754;2023-03-14T14:21:02;9.40;99.90
3562;DHT22;1795;52.074;4.754;2023-03-14T14:23:30;9.40;99.90
3562;DHT22;1795;52.074;4.754;2023-03-14T14:25:59;9.30;99.90
3562;DHT22;1795;52.074;4.754;2023-03-14T14:28:29;9.30;99.90
3562;DHT22;1795;52.074;4.754;2023-03-14T14:31:17;9.30;99.90
3562;DHT22;1795;52.074;4.754;2023-03-14T14:33:54;9.30;99.90
3562;DHT22;1795;52.074;4.754;2023-03-14T14:36:24;9.20;99.90
3562;DHT22;1795;52.074;4.754;2023-03-14T14:38:56;9.20;99.90
3562;DHT22;1795;52.074;4.754;2023-03-14T14:41:31;9.20;99.90
3562;DHT22;1795;52.074;4.754;2023-03-14T14:44:00;9.10;99.90
3562;DHT22;1795;52.074;4.754;2023-03-14T14:46:31;9.10;99.90
3562;DHT22;1795;52.074;4.754;2023-03-14T14:49:04;9.10;99.90
3562;DHT22;1795;52.074;4.754;2023-03-14T14:51:38;9.10;99.90
3562;DHT22;1795;52.074;4.754;2023-03-14T14:54:13;9.10;99.90
3562;DHT22;1795;52.074;4.754;2023-03-14T14:56:46;9.10;99.90
3562;DHT22;1795;52.074;4.754;2023-03-14T14:59:21;9.00;99.90
3562;DHT22;1795;52.074;4.754;2023-03-14T15:01:55;9.00;99.90
3562;DHT22;1795;52.074;4.754;2023-03-14T15:04:24;9.00;99.90
3562;DHT22;1795;52.074;4.754;2023-03-14T15:06:52;9.00;99.90
3562;DHT22;1795;52.074;4.754;2023-03-14T15:09:20;9.00;99.90
3562;DHT22;1795;52.074;4.754;2023-03-14T15:11:49;9.00;99.90
3562;DHT22;1795;52.074;4.754;2023-03-14T15:14:17;9.00;99.90
3562;DHT22;1795;52.074;4.754;2023-03-14T15:16:45;9.00;99.90
3562;DHT22;1795;52.074;4.754;2023-03-14T15:19:20;9.00;99.90
3562;DHT22;1795;52.074;4.754;2023-03-14T15:21:51;8.90;99.90
3562;DHT22;1795;52.074;4.754;2023-03-14T15:24:20;8.90;99.90
3562;DHT22;1795;52.074;4.754;2023-03-14T15:26:49;8.90;99.90
3562;DHT22;1795;52.074;4.754;2023-03-14T15:29:17;8.90;99.90
3562;DHT22;1795;52.074;4.754;2023-03-14T15:31:45;8.90;99.90
3562;DHT22;1795;52.074;4.754;2023-03-14T15:34:13;8.90;99.90
3562;DHT22;1795;52.074;4.754;2023-03-14T15:36:43;8.90;99.90
3562;DHT22;1795;52.074;4.754;2023-03-14T15:39:11;8.90;99.90
3562;DHT22;1795;52.074;4.754;2023-03-14T15:41:39;8.90;99.90
3562;DHT22;1795;52.074;4.754;2023-03-14T15:44:07;8.90;99.90
3562;DHT22;1795;52.074;4.754;2023-03-14T15:46:35;8.80;99.90
3562;DHT22;1795;52.074;4.754;2023-03-14T15:49:03;8.80;99.90
3562;DHT22;1795;52.074;4.754;2023-03-14T15:51:31;8.80;99.90
3562;DHT22;1795;52.074;4.754;2023-03-14T15:54:01;8.80;99.90
3562;DHT22;1795;52.074;4.754;2023-03-14T15:56:29;8.80;99.90
3562;DHT22;1795;52.074;4.754;2023-03-14T15:58:58;8.80;99.90
3562;DHT22;1795;52.074;4.754;2023-03-14T16:01:26;8.80;99.90
3562;DHT22;1795;52.074;4.754;2023-03-14T16:03:54;8.80;99.90
3562;DHT22;1795;52.074;4.754;2023-03-14T16:06:22;8.70;99.90
3562;DHT22;1795;52.074;4.754;2023-03-14T16:08:50;8.70;99.90
3562;DHT22;1795;52.074;4.754;2023-03-14T16:11:20;8.70;99.90
3562;DHT22;1795;52.074;4.754;2023-03-14T16:13:49;8.70;99.90
3562;DHT22;1795;52.074;4.754;2023-03-14T16:16:17;8.60;99.90
3562;DHT22;1795;52.074;4.754;2023-03-14T16:18:45;8.60;99.90
3562;DHT22;1795;52.074;4.754;2023-03-14T16:21:15;8.60;99.90
3562;DHT22;1795;52.074;4.754;2023-03-14T16:23:43;8.60;99.90
3562;DHT22;1795;52.074;4.754;2023-03-14T16:26:14;8.50;99.90
3562;DHT22;1795;52.074;4.754;2023-03-14T16:28:44;8.50;99.90
3562;DHT22;1795;52.074;4.754;2023-03-14T16:31:14;8.50;99.90
3562;DHT22;1795;52.074;4.754;2023-03-14T16:33:43;8.50;99.90
3562;DHT22;1795;52.074;4.754;2023-03-14T16:36:12;8.40;99.90
3562;DHT22;1795;52.074;4.754;2023-03-14T16:38:44;8.40;99.90
3562;DHT22;1795;52.074;4.754;2023-03-14T16:41:13;8.40;99.90
3562;DHT22;1795;52.074;4.754;2023-03-14T16:43:43;8.40;99.90